Praia Do Neiva — CUBL7 — position and weather

sailwx.info

Track history (hours):
 
Tides and Currents Weather Stations Pressure Air Temp Water Temp Dewpoint Dewpoint Depression Visibility Wind Speed Wind Dir Waves Ship Positions

Praia Do Neiva

Last reported at 2018-Feb-19 19:57 UTC. Time now 2018-Feb-25 16:06 UTC.
Position N 41°08' W 008°45'.

Length 16 m.

Type: Fishing. MMSI: 263214000.

Date/timePositionNaut miles runAvg speedWind from/ knotsBaromVisibWave heightAir tempDewpointWater temp
2018-Feb-19 19:57N 41°08' W 008°45'3 7.4
2018-Feb-19 19:30N 41°10' W 008°43'1 2.0
2018-Feb-19 19:00N 41°11' W 008°42'0 0.0
2018-Feb-19 18:30N 41°11' W 008°42'0 0.0
2018-Feb-19 18:00N 41°11' W 008°42'0 0.0
2018-Feb-19 17:30N 41°11' W 008°42'0 0.0
2018-Feb-19 17:00N 41°11' W 008°42'0 0.0
2018-Feb-19 16:30N 41°11' W 008°42'0 0.0
2018-Feb-19 16:00N 41°11' W 008°42'0 0.0
2018-Feb-19 15:30N 41°11' W 008°42'0 0.0
2018-Feb-19 15:00N 41°11' W 008°42'0 0.0
2018-Feb-19 14:30N 41°11' W 008°42'0 0.0
2018-Feb-19 14:00N 41°11' W 008°42'0 0.0
2018-Feb-19 13:30N 41°11' W 008°42'0 0.9
2018-Feb-19 13:00N 41°11' W 008°42'1 1.1
2018-Feb-19 12:30N 41°11' W 008°42'0 0.0
2018-Feb-19 11:59N 41°11' W 008°42'3 6.4
2018-Feb-19 11:30N 41°08' W 008°44'3 6.7
2018-Feb-19 11:00N 41°06' W 008°47'2 0.1
2018-Feb-18 13:13N 41°08' W 008°46'1 7.0
2018-Feb-18 13:00N 41°09' W 008°44'3 5.4
2018-Feb-18 12:30N 41°11' W 008°42'0 0.0
2018-Feb-18 12:00N 41°11' W 008°42'0 0.0
2018-Feb-18 11:30N 41°11' W 008°42'0 0.0
2018-Feb-18 11:00N 41°11' W 008°42'0 0.0
2018-Feb-18 10:30N 41°11' W 008°42'0 0.0
2018-Feb-18 10:00N 41°11' W 008°42'0 0.0
2018-Feb-18 09:30N 41°11' W 008°42'0 0.0
2018-Feb-18 09:00N 41°11' W 008°42'0 0.0
2018-Feb-18 08:30N 41°11' W 008°42'0 0.0
2018-Feb-18 08:00N 41°11' W 008°42'0 0.0
2018-Feb-18 07:30N 41°11' W 008°42'0 0.0
2018-Feb-18 07:00N 41°11' W 008°42'0 0.1
2018-Feb-18 06:30N 41°11' W 008°42'0 0.0
2018-Feb-18 06:00N 41°11' W 008°42'0 0.0
2018-Feb-18 05:29N 41°11' W 008°42'2 4.7
2018-Feb-18 05:00N 41°11' W 008°45'2 4.1
2018-Feb-18 04:30N 41°13' W 008°46'1 0.2
2018-Feb-17 22:22N 41°14' W 008°46'0 1.0
2018-Feb-17 21:55N 41°14' W 008°46'1 1.3
2018-Feb-17 21:26N 41°13' W 008°46'0 0.8
2018-Feb-17 20:54N 41°13' W 008°46'2 6.2
2018-Feb-17 20:30N 41°11' W 008°44'1 0.1
2018-Feb-17 08:33N 41°11' W 008°42'0 0.0
2018-Feb-17 08:30N 41°11' W 008°42'0 0.0
2018-Feb-17 08:00N 41°11' W 008°42'2 4.9
2018-Feb-17 07:30N 41°11' W 008°45'2 1.8
2018-Feb-17 06:10N 41°14' W 008°46'1 6.1
2018-Feb-17 05:58N 41°13' W 008°46'1 1.1
2018-Feb-17 05:30N 41°13' W 008°46'1 1.3
2018-Feb-17 04:59N 41°14' W 008°46'1 0.2
2018-Feb-16 22:30N 41°15' W 008°46'1 1.0
2018-Feb-16 21:38N 41°14' W 008°46'0 0.9
2018-Feb-16 21:30N 41°14' W 008°46'1 1.1
2018-Feb-16 20:52N 41°13' W 008°46'0 1.2
2018-Feb-16 20:27N 41°13' W 008°46'2 4.9
2018-Feb-16 20:00N 41°11' W 008°44'2 3.3
2018-Feb-16 19:30N 41°11' W 008°42'0 0.0
2018-Feb-16 19:00N 41°11' W 008°42'0 0.0
2018-Feb-16 18:30N 41°11' W 008°42'0 0.2
2018-Feb-16 18:00N 41°11' W 008°42'0 0.6
2018-Feb-16 17:30N 41°11' W 008°42'3 6.6
2018-Feb-16 17:00N 41°12' W 008°46'2 1.4
2018-Feb-16 15:55N 41°14' W 008°46'5 0.3
2018-Feb-16 00:29N 41°09' W 008°46'2 5.3
2018-Feb-16 00:00N 41°10' W 008°43'1 0.1
2018-Feb-15 14:44N 41°11' W 008°42'0 0.6
2018-Feb-15 14:30N 41°11' W 008°42'  
2018-Feb-13 09:42N 41°11' W 008°42'0 0.0
2018-Feb-13 09:30N 41°11' W 008°42'0 0.1
2018-Feb-13 09:00N 41°11' W 008°42'4 7.0
2018-Feb-13 08:30N 41°08' W 008°44'0 0.0
2018-Feb-12 19:47N 41°07' W 008°44'2 7.6
2018-Feb-12 19:30N 41°09' W 008°43'2 3.7
2018-Feb-12 19:00N 41°11' W 008°42'0 0.0
2018-Feb-12 18:30N 41°11' W 008°42'0 0.0
2018-Feb-12 18:00N 41°11' W 008°42'0 0.0
2018-Feb-12 17:30N 41°11' W 008°42'0 0.0
2018-Feb-12 17:00N 41°11' W 008°42'0 0.0
2018-Feb-12 16:30N 41°11' W 008°42'0 0.2
2018-Feb-12 16:00N 41°11' W 008°42'2 4.8
2018-Feb-12 15:30N 41°10' W 008°45'3 0.2
2018-Feb-11 22:17N 41°07' W 008°45'2 7.4
2018-Feb-11 22:00N 41°09' W 008°44'  
Track history (hours):
 
Tides and Currents Weather Stations Pressure Air Temp Water Temp Dewpoint Dewpoint Depression Visibility Wind Speed Wind Dir Waves Ship Positions

Praia Do Neiva

Last reported at 2018-Feb-19 19:57 UTC. Time now 2018-Feb-25 16:06 UTC.
Position N 41°08' W 008°45'.

Length 16 m.

Type: Fishing. MMSI: 263214000.

Date/timePositionNaut miles runAvg speedWind from/ knotsBaromVisibWave heightAir tempDewpointWater temp
2018-Feb-19 19:57N 41°08' W 008°45'3 7.4
2018-Feb-19 19:30N 41°10' W 008°43'1 2.0
2018-Feb-19 19:00N 41°11' W 008°42'0 0.0
2018-Feb-19 18:30N 41°11' W 008°42'0 0.0
2018-Feb-19 18:00N 41°11' W 008°42'0 0.0
2018-Feb-19 17:30N 41°11' W 008°42'0 0.0
2018-Feb-19 17:00N 41°11' W 008°42'0 0.0
2018-Feb-19 16:30N 41°11' W 008°42'0 0.0
2018-Feb-19 16:00N 41°11' W 008°42'0 0.0
2018-Feb-19 15:30N 41°11' W 008°42'0 0.0
2018-Feb-19 15:00N 41°11' W 008°42'0 0.0
2018-Feb-19 14:30N 41°11' W 008°42'0 0.0
2018-Feb-19 14:00N 41°11' W 008°42'0 0.0
2018-Feb-19 13:30N 41°11' W 008°42'0 0.9
2018-Feb-19 13:00N 41°11' W 008°42'1 1.1
2018-Feb-19 12:30N 41°11' W 008°42'0 0.0
2018-Feb-19 11:59N 41°11' W 008°42'3 6.4
2018-Feb-19 11:30N 41°08' W 008°44'3 6.7
2018-Feb-19 11:00N 41°06' W 008°47'2 0.1
2018-Feb-18 13:13N 41°08' W 008°46'1 7.0
2018-Feb-18 13:00N 41°09' W 008°44'3 5.4
2018-Feb-18 12:30N 41°11' W 008°42'0 0.0
2018-Feb-18 12:00N 41°11' W 008°42'0 0.0
2018-Feb-18 11:30N 41°11' W 008°42'0 0.0
2018-Feb-18 11:00N 41°11' W 008°42'0 0.0
2018-Feb-18 10:30N 41°11' W 008°42'0 0.0
2018-Feb-18 10:00N 41°11' W 008°42'0 0.0
2018-Feb-18 09:30N 41°11' W 008°42'0 0.0
2018-Feb-18 09:00N 41°11' W 008°42'0 0.0
2018-Feb-18 08:30N 41°11' W 008°42'0 0.0
2018-Feb-18 08:00N 41°11' W 008°42'0 0.0
2018-Feb-18 07:30N 41°11' W 008°42'0 0.0
2018-Feb-18 07:00N 41°11' W 008°42'0 0.1
2018-Feb-18 06:30N 41°11' W 008°42'0 0.0
2018-Feb-18 06:00N 41°11' W 008°42'0 0.0
2018-Feb-18 05:29N 41°11' W 008°42'2 4.7
2018-Feb-18 05:00N 41°11' W 008°45'2 4.1
2018-Feb-18 04:30N 41°13' W 008°46'1 0.2
2018-Feb-17 22:22N 41°14' W 008°46'0 1.0
2018-Feb-17 21:55N 41°14' W 008°46'1 1.3
2018-Feb-17 21:26N 41°13' W 008°46'0 0.8
2018-Feb-17 20:54N 41°13' W 008°46'2 6.2
2018-Feb-17 20:30N 41°11' W 008°44'1 0.1
2018-Feb-17 08:33N 41°11' W 008°42'0 0.0
2018-Feb-17 08:30N 41°11' W 008°42'0 0.0
2018-Feb-17 08:00N 41°11' W 008°42'2 4.9
2018-Feb-17 07:30N 41°11' W 008°45'2 1.8
2018-Feb-17 06:10N 41°14' W 008°46'1 6.1
2018-Feb-17 05:58N 41°13' W 008°46'1 1.1
2018-Feb-17 05:30N 41°13' W 008°46'1 1.3
2018-Feb-17 04:59N 41°14' W 008°46'1 0.2
2018-Feb-16 22:30N 41°15' W 008°46'1 1.0
2018-Feb-16 21:38N 41°14' W 008°46'0 0.9
2018-Feb-16 21:30N 41°14' W 008°46'1 1.1
2018-Feb-16 20:52N 41°13' W 008°46'0 1.2
2018-Feb-16 20:27N 41°13' W 008°46'2 4.9
2018-Feb-16 20:00N 41°11' W 008°44'2 3.3
2018-Feb-16 19:30N 41°11' W 008°42'0 0.0
2018-Feb-16 19:00N 41°11' W 008°42'0 0.0
2018-Feb-16 18:30N 41°11' W 008°42'0 0.2
2018-Feb-16 18:00N 41°11' W 008°42'0 0.6
2018-Feb-16 17:30N 41°11' W 008°42'3 6.6
2018-Feb-16 17:00N 41°12' W 008°46'2 1.4
2018-Feb-16 15:55N 41°14' W 008°46'5 0.3
2018-Feb-16 00:29N 41°09' W 008°46'2 5.3
2018-Feb-16 00:00N 41°10' W 008°43'1 0.1
2018-Feb-15 14:44N 41°11' W 008°42'0 0.6
2018-Feb-15 14:30N 41°11' W 008°42'  
2018-Feb-13 09:42N 41°11' W 008°42'0 0.0
2018-Feb-13 09:30N 41°11' W 008°42'0 0.1
2018-Feb-13 09:00N 41°11' W 008°42'4 7.0
2018-Feb-13 08:30N 41°08' W 008°44'0 0.0
2018-Feb-12 19:47N 41°07' W 008°44'2 7.6
2018-Feb-12 19:30N 41°09' W 008°43'2 3.7
2018-Feb-12 19:00N 41°11' W 008°42'0 0.0
2018-Feb-12 18:30N 41°11' W 008°42'0 0.0
2018-Feb-12 18:00N 41°11' W 008°42'0 0.0
2018-Feb-12 17:30N 41°11' W 008°42'0 0.0
2018-Feb-12 17:00N 41°11' W 008°42'0 0.0
2018-Feb-12 16:30N 41°11' W 008°42'0 0.2
2018-Feb-12 16:00N 41°11' W 008°42'2 4.8
2018-Feb-12 15:30N 41°10' W 008°45'3 0.2
2018-Feb-11 22:17N 41°07' W 008°45'2 7.4
2018-Feb-11 22:00N 41°09' W 008°44'  

Dump ship's entire track history